Exam schedule

COMM
Course Exam Day and Time Location Alpha Split Changes / Notes
COMM293 101 DEC 13 2018 12:00 PM ANGU 492 WON-ZHU
COMM293 102 DEC 13 2018 12:00 PM ANGU 098 . -EAS
COMM293 102 DEC 13 2018 12:00 PM SWNG 121 ENG-JEL
COMM293 102 DEC 13 2018 12:00 PM SWNG 122 JI -LEU
COMM293 102 DEC 13 2018 12:00 PM SWNG 221 LI -NAM
COMM293 102 DEC 13 2018 12:00 PM SWNG 222 OBO-SUN
COMM293 102 DEC 13 2018 12:00 PM ANGU 491 TAN-WIN
COMM293 102 DEC 13 2018 12:00 PM ANGU 492 WON-ZHU
COMM293 103 DEC 13 2018 12:00 PM ANGU 098 AGG-EL
COMM293 103 DEC 13 2018 12:00 PM SWNG 121 ERB-JAL
COMM293 103 DEC 13 2018 12:00 PM SWNG 122 JHU-LEV
COMM293 103 DEC 13 2018 12:00 PM SWNG 221 LI -NI
COMM293 103 DEC 13 2018 12:00 PM SWNG 222 NOR-TAM
COMM293 103 DEC 13 2018 12:00 PM ANGU 491 TAN-WIS
COMM293 103 DEC 13 2018 12:00 PM ANGU 492 WON-ZUV
COMM294 101 DEC 12 2018 07:00 PM SWNG 221
COMM294 102 DEC 12 2018 07:00 PM ANGU 492
COMM295 101 DEC 08 2018 12:00 PM ANGU 234 AIK-GIL
COMM295 101 DEC 08 2018 12:00 PM ANGU 241 GOL-MIL
COMM295 101 DEC 08 2018 12:00 PM ANGU 243 MIT-SHU
COMM295 101 DEC 08 2018 12:00 PM ANGU 254 SID-ZHU
COMM295 102 DEC 08 2018 12:00 PM ANGU 343 ABD-FU
COMM295 102 DEC 08 2018 12:00 PM ANGU 345 GAO-LI
COMM295 102 DEC 08 2018 12:00 PM ANGU 347 LIC-SIN
COMM295 102 DEC 08 2018 12:00 PM ANGU 350 TAB-ZUV
COMM295 103 DEC 08 2018 12:00 PM SWNG 222 AIT-TUN
COMM295 103 DEC 08 2018 12:00 PM SWNG 221 WAN-ZHU
COMM295 104 DEC 08 2018 12:00 PM BUCH A202 ACH-LEI
COMM295 104 DEC 08 2018 12:00 PM BUCH B208 LI -RYU
COMM295 104 DEC 08 2018 12:00 PM BUCH B313 SAD-ZUO
COMM295 105 DEC 08 2018 12:00 PM SWNG 121
COMM295 106 DEC 08 2018 12:00 PM SWNG 122
COMM295 107 DEC 08 2018 12:00 PM BUCH B315 ADA-HAR
COMM295 107 DEC 08 2018 12:00 PM BUCH B213 HAW-MUS
COMM295 107 DEC 08 2018 12:00 PM BUCH B215 NOR-ZHA
COMM296 101 DEC 10 2018 08:30 AM SRC A
COMM296 102 DEC 10 2018 08:30 AM SRC A
COMM296 103 DEC 10 2018 08:30 AM CIRS 1250
COMM296 104 DEC 10 2018 08:30 AM CIRS 1250
COMM296 105 DEC 10 2018 08:30 AM SRC A
COMM296 106 DEC 10 2018 08:30 AM ANGU 492
COMM296 107 DEC 10 2018 08:30 AM ANGU 491
COMM298 101 DEC 10 2018 03:30 PM ANGU 491
COMM320 DD1 DEC 10 2018 07:00 PM ANGU 492
COMM329 103 DEC 11 2018 07:00 PM ANGU 491
COMM335 101 DEC 12 2018 08:30 AM ANGU 098
COMM337 101 DEC 14 2018 08:30 AM ANGU 098
COMM353 101 DEC 14 2018 12:00 PM ANGU 098
COMM353 102 DEC 14 2018 12:00 PM ANGU 098
COMM353 103 DEC 14 2018 12:00 PM ANGU 098
COMM354 101 DEC 04 2018 03:30 PM ANGU 098
COMM354 102 DEC 04 2018 03:30 PM ANGU 098
COMM354 103 DEC 04 2018 03:30 PM ANGU 098
COMM354 104 DEC 04 2018 03:30 PM IBLC 182
COMM354 105 DEC 04 2018 03:30 PM IBLC 182
COMM355 101 DEC 14 2018 07:00 PM ANGU 098
COMM355 102 DEC 14 2018 07:00 PM ANGU 098
COMM355 103 DEC 14 2018 07:00 PM ANGU 098
COMM362 101 DEC 07 2018 12:00 PM SWNG 221
COMM362 102 DEC 07 2018 12:00 PM SWNG 121
COMM362 103 DEC 07 2018 12:00 PM SWNG 121
COMM363 101 DEC 10 2018 08:30 AM SWNG 221 AQU-LIN Location Change
COMM363 101 DEC 10 2018 08:30 AM SWNG 222 LON-YOU Location Change
COMM363 102 DEC 10 2018 08:30 AM SWNG 221 APT-LIU Location Change
COMM363 102 DEC 10 2018 08:30 AM SWNG 222 LOW-ZHO Location Change
COMM363 103 DEC 10 2018 08:30 AM SWNG 221 AGB-LIU Location Change
COMM363 103 DEC 10 2018 08:30 AM SWNG 222 LOH-ZHA Location Change
COMM365 101 DEC 15 2018 03:30 PM ANGU 098
COMM365 102 DEC 15 2018 03:30 PM ANGU 098
COMM365 103 DEC 15 2018 03:30 PM ANGU 098
COMM370 101 DEC 13 2018 12:00 PM SRC A
COMM370 102 DEC 13 2018 12:00 PM SRC A
COMM370 103 DEC 13 2018 12:00 PM SRC C
COMM370 104 DEC 13 2018 12:00 PM SRC C
COMM370 105 DEC 13 2018 12:00 PM SRC A
COMM370 106 DEC 13 2018 12:00 PM ANGU 241 ALI-CON Location Change
COMM370 106 DEC 13 2018 12:00 PM ANGU 243 EDM-HUN Location Change
COMM370 106 DEC 13 2018 12:00 PM ANGU 254 KOS-LUO Location Change
COMM370 106 DEC 13 2018 12:00 PM ANGU 343 MAN-PEN Location Change
COMM370 106 DEC 13 2018 12:00 PM ANGU 345 SCO-WU Location Change
COMM370 106 DEC 13 2018 12:00 PM ANGU 347 XIA-ZHI Location Change
COMM370 107 DEC 13 2018 12:00 PM ANGU 241 AMI-DUM Location Change
COMM370 107 DEC 13 2018 12:00 PM ANGU 243 FUN-HUN Location Change
COMM370 107 DEC 13 2018 12:00 PM ANGU 254 KAL-LOU Location Change
COMM370 107 DEC 13 2018 12:00 PM ANGU 343 NAR-ROB Location Change
COMM370 107 DEC 13 2018 12:00 PM ANGU 345 VEN-WU Location Change
COMM370 107 DEC 13 2018 12:00 PM ANGU 347 YIM-ZHU Location Change
COMM370 108 DEC 13 2018 12:00 PM SRC C
COMM370 109 DEC 13 2018 12:00 PM ANGU 241 AND-DUN Location Change
COMM370 109 DEC 13 2018 12:00 PM ANGU 243 FOO-HUA Location Change
COMM370 109 DEC 13 2018 12:00 PM ANGU 254 JIN-LU Location Change
COMM370 109 DEC 13 2018 12:00 PM ANGU 343 MA -RUA Location Change
COMM370 109 DEC 13 2018 12:00 PM ANGU 345 SID-WAN Location Change
COMM370 109 DEC 13 2018 12:00 PM ANGU 347 XIA-ZHU Location Change
COMM370 110 DEC 13 2018 12:00 PM ANGU 241 ANT-DUP Location Change
COMM370 110 DEC 13 2018 12:00 PM ANGU 243 GUA-HYL Location Change
COMM370 110 DEC 13 2018 12:00 PM ANGU 254 JAI-LYU Location Change
COMM370 110 DEC 13 2018 12:00 PM ANGU 343 MAN-QI Location Change
COMM370 110 DEC 13 2018 12:00 PM ANGU 345 SAC-WU Location Change
COMM370 110 DEC 13 2018 12:00 PM ANGU 347 YIN-ZOR Location Change

Pages